createdAt,value
2017-07-19T00:00:38.757Z,821.72
2017-07-19T00:01:39.375Z,821.76
2017-07-19T00:02:40.024Z,821.75
2017-07-19T00:03:40.727Z,821.72
2017-07-19T00:04:41.344Z,821.69
2017-07-19T00:05:41.961Z,821.70
2017-07-19T00:06:42.584Z,821.75
2017-07-19T00:07:43.201Z,821.76
2017-07-19T00:08:43.894Z,821.74
2017-07-19T00:09:44.499Z,821.74
2017-07-19T00:10:45.116Z,821.76
2017-07-19T00:11:45.769Z,821.78
2017-07-19T00:12:46.370Z,821.77
2017-07-19T00:13:47.066Z,821.79
2017-07-19T00:14:47.695Z,821.77
2017-07-19T00:15:48.298Z,821.84
2017-07-19T00:16:48.941Z,821.83
2017-07-19T00:17:49.548Z,821.81
2017-07-19T00:18:50.213Z,821.77
2017-07-19T00:19:50.840Z,821.79
2017-07-19T00:20:51.455Z,821.82
2017-07-19T00:21:52.096Z,821.84
2017-07-19T00:22:52.700Z,821.80
2017-07-19T00:23:53.398Z,821.84
2017-07-19T00:24:54.050Z,821.85
2017-07-19T00:25:54.693Z,821.80
2017-07-19T00:26:55.297Z,821.83
2017-07-19T00:27:55.921Z,821.86
2017-07-19T00:28:56.588Z,821.84
2017-07-19T00:29:57.242Z,821.89
2017-07-19T00:30:57.856Z,821.88
2017-07-19T00:31:58.480Z,821.89
2017-07-19T00:32:59.100Z,821.85
2017-07-19T00:33:59.964Z,821.84
2017-07-19T00:35:00.588Z,821.82
2017-07-19T00:36:01.203Z,821.81
2017-07-19T00:37:01.820Z,821.82
2017-07-19T00:38:02.462Z,821.86
2017-07-19T00:39:03.117Z,821.85
2017-07-19T00:40:03.737Z,821.85
2017-07-19T00:41:04.356Z,821.85
2017-07-19T00:42:04.979Z,821.85
2017-07-19T00:43:05.622Z,821.81
2017-07-19T00:44:06.290Z,821.86
2017-07-19T00:45:06.907Z,821.88
2017-07-19T00:46:07.526Z,821.84
2017-07-19T00:47:08.143Z,821.82
2017-07-19T00:48:08.769Z,821.79
2017-07-19T00:49:09.439Z,821.80
2017-07-19T00:50:10.060Z,821.82
2017-07-19T00:51:10.680Z,821.81
2017-07-19T00:52:11.323Z,821.81
2017-07-19T00:53:11.932Z,821.79
2017-07-19T00:54:12.594Z,821.76
2017-07-19T00:55:13.219Z,821.80
2017-07-19T00:56:13.835Z,821.77
2017-07-19T00:57:14.452Z,821.83
2017-07-19T00:58:15.070Z,821.81
2017-07-19T00:59:15.741Z,821.79
2017-07-19T01:00:16.393Z,821.77
2017-07-19T01:01:17.012Z,821.75
2017-07-19T01:02:17.631Z,821.77
2017-07-19T01:03:18.281Z,821.79
2017-07-19T01:04:18.931Z,821.80
2017-07-19T01:05:19.582Z,821.82
2017-07-19T01:06:20.237Z,821.81
2017-07-19T01:07:20.825Z,821.82
2017-07-19T01:08:21.476Z,821.83
2017-07-19T01:09:22.153Z,821.79
2017-07-19T01:10:22.756Z,821.81
2017-07-19T01:11:23.374Z,821.82
2017-07-19T01:12:23.991Z,821.80
2017-07-19T01:13:24.609Z,821.81
2017-07-19T01:14:25.321Z,821.77
2017-07-19T01:15:25.929Z,821.77
2017-07-19T01:16:26.548Z,821.72
2017-07-19T01:17:27.164Z,821.73
2017-07-19T01:18:27.815Z,821.74
2017-07-19T01:19:28.481Z,821.70
2017-07-19T01:20:29.103Z,821.69
2017-07-19T01:21:29.717Z,821.70
2017-07-19T01:22:30.335Z,821.70
2017-07-19T01:23:30.959Z,821.66
2017-07-19T01:24:31.624Z,821.67
2017-07-19T01:25:32.241Z,821.69
2017-07-19T01:26:32.864Z,821.64
2017-07-19T01:27:33.479Z,821.67
2017-07-19T01:28:34.100Z,821.64
2017-07-19T01:29:34.802Z,821.67
2017-07-19T01:30:35.419Z,821.66
2017-07-19T01:31:36.069Z,821.67
2017-07-19T01:32:36.686Z,821.66
2017-07-19T01:33:37.337Z,821.64
2017-07-19T01:34:38.005Z,821.60
2017-07-19T01:35:38.622Z,821.63
2017-07-19T01:36:39.266Z,821.57
2017-07-19T01:37:39.869Z,821.59
2017-07-19T01:38:40.488Z,821.56
2017-07-19T01:39:41.155Z,821.57
2017-07-19T01:40:41.773Z,821.53
2017-07-19T01:41:42.424Z,821.53
2017-07-19T01:42:43.041Z,821.53
2017-07-19T01:43:43.664Z,821.52
2017-07-19T01:44:44.328Z,821.51
2017-07-19T01:45:44.945Z,821.49
2017-07-19T01:46:45.590Z,821.52
2017-07-19T01:47:46.273Z,821.50
2017-07-19T01:48:46.874Z,821.49
2017-07-19T01:49:47.539Z,821.45
2017-07-19T01:50:48.158Z,821.46
2017-07-19T01:51:48.774Z,821.44
2017-07-19T01:52:49.391Z,821.42
2017-07-19T01:53:50.035Z,821.43
2017-07-19T01:54:50.695Z,821.40
2017-07-19T01:55:51.309Z,821.40
2017-07-19T01:56:51.927Z,821.40
2017-07-19T01:57:52.550Z,821.38
2017-07-19T01:58:53.168Z,821.34
2017-07-19T01:59:53.836Z,821.35
2017-07-19T02:00:54.452Z,821.36
2017-07-19T02:01:55.073Z,821.32
2017-07-19T02:02:55.693Z,821.34
2017-07-19T02:03:56.305Z,821.35
2017-07-19T02:04:56.973Z,821.26
2017-07-19T02:05:57.590Z,821.32
2017-07-19T02:06:58.206Z,821.31
2017-07-19T02:07:58.822Z,821.31
2017-07-19T02:08:59.439Z,821.27
2017-07-19T02:10:00.106Z,821.29
2017-07-19T02:11:00.722Z,821.26
2017-07-19T02:12:01.374Z,821.26
2017-07-19T02:13:01.992Z,821.25
2017-07-19T02:14:02.643Z,821.24
2017-07-19T02:15:03.313Z,821.25
2017-07-19T02:16:03.955Z,821.23
2017-07-19T02:17:04.558Z,821.22
2017-07-19T02:18:05.178Z,821.24
2017-07-19T02:19:05.798Z,821.24
2017-07-19T02:20:06.494Z,821.24
2017-07-19T02:21:07.141Z,821.27
2017-07-19T02:22:07.759Z,821.26
2017-07-19T02:23:08.375Z,821.26
2017-07-19T02:24:08.992Z,821.29
2017-07-19T02:25:09.660Z,821.29
2017-07-19T02:26:10.276Z,821.29
2017-07-19T02:27:10.894Z,821.29
2017-07-19T02:28:11.514Z,821.29
2017-07-19T02:29:12.131Z,821.27
2017-07-19T02:30:12.998Z,821.27
2017-07-19T02:31:13.615Z,821.26
2017-07-19T02:32:14.232Z,821.27
2017-07-19T02:33:14.847Z,821.22
2017-07-19T02:34:15.465Z,821.23
2017-07-19T02:35:16.130Z,821.22
2017-07-19T02:36:16.786Z,821.21
2017-07-19T02:37:17.404Z,821.22
2017-07-19T02:38:18.026Z,821.18
2017-07-19T02:39:18.673Z,821.19
2017-07-19T02:40:19.367Z,821.19
2017-07-19T02:41:20.010Z,821.16
2017-07-19T02:42:20.613Z,821.15
2017-07-19T02:43:21.230Z,821.18
2017-07-19T02:44:21.877Z,821.18
2017-07-19T02:45:22.526Z,821.16
2017-07-19T02:46:23.143Z,821.16
2017-07-19T02:47:23.759Z,821.17
2017-07-19T02:48:24.443Z,821.12
2017-07-19T02:49:25.043Z,821.12
2017-07-19T02:50:25.959Z,821.13
2017-07-19T02:51:26.576Z,821.14
2017-07-19T02:52:27.193Z,821.15
2017-07-19T02:53:27.809Z,821.15
2017-07-19T02:54:28.425Z,821.19
2017-07-19T02:55:29.094Z,821.16
2017-07-19T02:56:29.715Z,821.13
2017-07-19T02:57:30.366Z,821.19
2017-07-19T02:58:30.984Z,821.13
2017-07-19T02:59:31.599Z,821.14
2017-07-19T03:00:32.272Z,821.15
2017-07-19T03:01:32.886Z,821.13
2017-07-19T03:02:33.509Z,821.21
2017-07-19T03:03:34.124Z,821.15
2017-07-19T03:04:34.747Z,821.19
2017-07-19T03:05:35.409Z,821.20
2017-07-19T03:06:36.029Z,821.22
2017-07-19T03:07:36.686Z,821.16
2017-07-19T03:08:37.305Z,821.21
2017-07-19T03:09:37.921Z,821.19
2017-07-19T03:10:38.610Z,821.16
2017-07-19T03:11:39.217Z,821.15
2017-07-19T03:12:39.834Z,821.13
2017-07-19T03:13:40.455Z,821.13
2017-07-19T03:14:41.104Z,821.10
2017-07-19T03:15:41.755Z,821.10
2017-07-19T03:16:42.373Z,821.10
2017-07-19T03:17:42.990Z,821.13
2017-07-19T03:18:43.632Z,821.15
2017-07-19T03:19:44.237Z,821.13
2017-07-19T03:20:44.904Z,821.14
2017-07-19T03:21:45.520Z,821.19
2017-07-19T03:22:46.138Z,821.18
2017-07-19T03:23:46.760Z,821.22
2017-07-19T03:24:47.375Z,821.22
2017-07-19T03:25:48.047Z,821.24
2017-07-19T03:26:48.661Z,821.25
2017-07-19T03:27:49.284Z,821.27
2017-07-19T03:28:49.931Z,821.27
2017-07-19T03:29:50.587Z,821.27
2017-07-19T03:30:51.251Z,821.31
2017-07-19T03:31:51.869Z,821.32
2017-07-19T03:32:52.490Z,821.27
2017-07-19T03:33:53.104Z,821.31
2017-07-19T03:34:53.754Z,821.31
2017-07-19T03:35:54.449Z,821.33
2017-07-19T03:36:55.126Z,821.32
2017-07-19T03:37:55.779Z,821.35
2017-07-19T03:38:56.393Z,821.37
2017-07-19T03:39:57.012Z,821.37
2017-07-19T03:40:57.680Z,821.38
2017-07-19T03:41:58.301Z,821.38
2017-07-19T03:42:58.916Z,821.40
2017-07-19T03:43:59.535Z,821.37
2017-07-19T03:45:00.149Z,821.38
2017-07-19T03:46:00.849Z,821.36
2017-07-19T03:47:01.449Z,821.35
2017-07-19T03:48:02.065Z,821.34
2017-07-19T03:49:02.682Z,821.34
2017-07-19T03:50:03.308Z,821.34
2017-07-19T03:51:04.253Z,821.38
2017-07-19T03:52:04.872Z,821.37
2017-07-19T03:53:05.486Z,821.38
2017-07-19T03:54:06.103Z,821.43
2017-07-19T03:55:06.720Z,821.42
2017-07-19T03:56:07.386Z,821.43
2017-07-19T03:57:08.008Z,821.43
2017-07-19T03:58:08.623Z,821.48
2017-07-19T03:59:09.240Z,821.48
2017-07-19T04:00:09.858Z,821.43
2017-07-19T04:01:10.530Z,821.46
2017-07-19T04:02:11.152Z,821.47
2017-07-19T04:03:11.764Z,821.47
2017-07-19T04:04:12.381Z,821.47
2017-07-19T04:05:12.997Z,821.47
2017-07-19T04:06:13.664Z,821.46
2017-07-19T04:07:14.281Z,821.44
2017-07-19T04:08:14.900Z,821.44
2017-07-19T04:09:15.518Z,821.45
2017-07-19T04:10:16.133Z,821.41
2017-07-19T04:11:16.800Z,821.45
2017-07-19T04:12:17.416Z,821.42
2017-07-19T04:13:18.034Z,821.44
2017-07-19T04:14:18.655Z,821.46
2017-07-19T04:15:19.298Z,821.49
2017-07-19T04:16:19.999Z,821.52
2017-07-19T04:17:20.651Z,821.48
2017-07-19T04:18:21.271Z,821.50
2017-07-19T04:19:21.888Z,821.44
2017-07-19T04:20:22.506Z,821.44
2017-07-19T04:21:23.174Z,821.44
2017-07-19T04:22:23.792Z,821.43
2017-07-19T04:23:24.439Z,821.46
2017-07-19T04:24:25.117Z,821.43
2017-07-19T04:25:25.723Z,821.48
2017-07-19T04:26:26.392Z,821.49
2017-07-19T04:27:27.009Z,821.51
2017-07-19T04:28:27.626Z,821.49
2017-07-19T04:29:28.272Z,821.49
2017-07-19T04:30:28.877Z,821.47
2017-07-19T04:31:29.746Z,821.47
2017-07-19T04:32:30.396Z,821.48
2017-07-19T04:33:31.052Z,821.44
2017-07-19T04:34:31.700Z,821.46
2017-07-19T04:35:32.319Z,821.40
2017-07-19T04:36:32.987Z,821.34
2017-07-19T04:37:33.605Z,821.35
2017-07-19T04:38:34.227Z,821.38
2017-07-19T04:39:34.850Z,821.36
2017-07-19T04:40:35.506Z,821.39
2017-07-19T04:41:36.175Z,821.38
2017-07-19T04:42:36.793Z,821.42
2017-07-19T04:43:37.409Z,821.41
2017-07-19T04:44:38.027Z,821.41
2017-07-19T04:45:38.651Z,821.44
2017-07-19T04:46:39.315Z,821.48
2017-07-19T04:47:39.936Z,821.47
2017-07-19T04:48:40.553Z,821.49
2017-07-19T04:49:41.172Z,821.49
2017-07-19T04:50:41.790Z,821.48
2017-07-19T04:51:42.456Z,821.51
2017-07-19T04:52:43.076Z,821.47
2017-07-19T04:53:43.699Z,821.47
2017-07-19T04:54:44.373Z,821.46
2017-07-19T04:55:45.003Z,821.44
2017-07-19T04:56:45.659Z,821.46
2017-07-19T04:57:46.279Z,821.44
2017-07-19T04:58:46.895Z,821.49
2017-07-19T04:59:47.514Z,821.46
2017-07-19T05:00:48.133Z,821.48
2017-07-19T05:01:48.802Z,821.44
2017-07-19T05:02:49.422Z,821.44
2017-07-19T05:03:50.039Z,821.46
2017-07-19T05:04:50.716Z,821.42
2017-07-19T05:05:51.321Z,821.46
2017-07-19T05:06:51.990Z,821.53
2017-07-19T05:07:52.609Z,821.56
2017-07-19T05:08:53.226Z,821.56
2017-07-19T05:09:53.851Z,821.58
2017-07-19T05:10:54.467Z,821.61
2017-07-19T05:11:55.165Z,821.63
2017-07-19T05:12:55.768Z,821.66
2017-07-19T05:13:56.415Z,821.61
2017-07-19T05:14:57.017Z,821.58
2017-07-19T05:15:57.635Z,821.58
2017-07-19T05:16:58.300Z,821.60
2017-07-19T05:17:58.922Z,821.57
2017-07-19T05:18:59.542Z,821.63
2017-07-19T05:20:00.159Z,821.62
2017-07-19T05:21:00.814Z,821.62
2017-07-19T05:22:01.514Z,821.60
2017-07-19T05:23:02.132Z,821.65
2017-07-19T05:24:02.778Z,821.61
2017-07-19T05:25:03.383Z,821.58
2017-07-19T05:26:04.002Z,821.62
2017-07-19T05:27:04.668Z,821.61
2017-07-19T05:28:05.288Z,821.65
2017-07-19T05:29:05.910Z,821.66
2017-07-19T05:30:06.532Z,821.64
2017-07-19T05:31:07.152Z,821.64
2017-07-19T05:32:07.857Z,821.66
2017-07-19T05:33:08.480Z,821.66
2017-07-19T05:34:09.094Z,821.65
2017-07-19T05:35:09.712Z,821.66
2017-07-19T05:36:10.330Z,821.68
2017-07-19T05:37:11.021Z,821.70
2017-07-19T05:38:11.658Z,821.70
2017-07-19T05:39:12.267Z,821.71
2017-07-19T05:40:12.878Z,821.74
2017-07-19T05:41:13.532Z,821.74
2017-07-19T05:42:14.200Z,821.76
2017-07-19T05:43:14.851Z,821.73
2017-07-19T05:44:15.470Z,821.74
2017-07-19T05:45:16.087Z,821.73
2017-07-19T05:46:16.738Z,821.75
2017-07-19T05:47:17.439Z,821.71
2017-07-19T05:48:18.057Z,821.75
2017-07-19T05:49:18.676Z,821.72
2017-07-19T05:50:19.295Z,821.72
2017-07-19T05:51:19.926Z,821.75
2017-07-19T05:52:20.620Z,821.74
2017-07-19T05:53:21.238Z,821.70
2017-07-19T05:54:21.857Z,821.73
2017-07-19T05:55:22.487Z,821.70
2017-07-19T05:56:23.095Z,821.71
2017-07-19T05:57:23.968Z,821.70
2017-07-19T05:58:24.584Z,821.67
2017-07-19T05:59:25.203Z,821.67
2017-07-19T06:00:25.822Z,821.67
2017-07-19T06:01:26.442Z,821.64
2017-07-19T06:02:27.147Z,821.65
2017-07-19T06:03:27.766Z,821.68
2017-07-19T06:04:28.389Z,821.68
2017-07-19T06:05:29.005Z,821.66
2017-07-19T06:06:29.624Z,821.65
2017-07-19T06:07:30.303Z,821.65
2017-07-19T06:08:30.917Z,821.65
2017-07-19T06:09:31.562Z,821.66
2017-07-19T06:10:32.197Z,821.70
2017-07-19T06:11:32.801Z,821.73
2017-07-19T06:12:33.471Z,821.72
2017-07-19T06:13:34.092Z,821.73
2017-07-19T06:14:34.712Z,821.73
2017-07-19T06:15:35.333Z,821.76
2017-07-19T06:16:35.952Z,821.72
2017-07-19T06:17:36.624Z,821.74
2017-07-19T06:18:37.243Z,821.73
2017-07-19T06:19:37.925Z,821.72
2017-07-19T06:20:38.554Z,821.67
2017-07-19T06:21:39.162Z,821.68
2017-07-19T06:22:39.833Z,821.66
2017-07-19T06:23:40.453Z,821.64
2017-07-19T06:24:41.081Z,821.62
2017-07-19T06:25:41.700Z,821.62
2017-07-19T06:26:42.320Z,821.58
2017-07-19T06:27:42.990Z,821.60
2017-07-19T06:28:43.612Z,821.57
2017-07-19T06:29:44.237Z,821.58
2017-07-19T06:30:44.886Z,821.58
2017-07-19T06:31:45.506Z,821.56
2017-07-19T06:32:46.176Z,821.57
2017-07-19T06:33:46.800Z,821.52
2017-07-19T06:34:47.417Z,821.52
2017-07-19T06:35:48.070Z,821.51
2017-07-19T06:36:48.691Z,821.54
2017-07-19T06:37:49.365Z,821.50
2017-07-19T06:38:49.991Z,821.48
2017-07-19T06:39:50.608Z,821.45
2017-07-19T06:40:51.228Z,821.47
2017-07-19T06:41:51.848Z,821.50
2017-07-19T06:42:52.520Z,821.48
2017-07-19T06:43:53.141Z,821.47
2017-07-19T06:44:53.789Z,821.47
2017-07-19T06:45:54.420Z,821.42
2017-07-19T06:46:55.028Z,821.43
2017-07-19T06:47:55.731Z,821.36
2017-07-19T06:48:56.362Z,821.40
2017-07-19T06:49:57.003Z,821.36
2017-07-19T06:50:57.607Z,821.33
2017-07-19T06:51:58.260Z,821.34
2017-07-19T06:52:58.940Z,821.30
2017-07-19T06:53:59.556Z,821.32
2017-07-19T06:55:00.177Z,821.32
2017-07-19T06:56:00.797Z,821.31
2017-07-19T06:57:01.420Z,821.32
2017-07-19T06:58:02.093Z,821.27
2017-07-19T06:59:02.720Z,821.28
2017-07-19T07:00:03.337Z,821.26
2017-07-19T07:01:03.966Z,821.24
2017-07-19T07:02:04.583Z,821.20
2017-07-19T07:03:05.506Z,821.23
2017-07-19T07:04:06.126Z,821.20
2017-07-19T07:05:06.748Z,821.22
2017-07-19T07:06:07.375Z,821.24
2017-07-19T07:07:07.995Z,821.26
2017-07-19T07:08:08.665Z,821.25
2017-07-19T07:09:09.323Z,821.27
2017-07-19T07:10:09.947Z,821.25
2017-07-19T07:11:10.567Z,821.25
2017-07-19T07:12:11.214Z,821.28
2017-07-19T07:13:11.875Z,821.31
2017-07-19T07:14:12.496Z,821.32
2017-07-19T07:15:13.118Z,821.36
2017-07-19T07:16:13.741Z,821.37
2017-07-19T07:17:14.394Z,821.35
2017-07-19T07:18:15.253Z,821.36
2017-07-19T07:19:15.879Z,821.37
2017-07-19T07:20:16.526Z,821.41
2017-07-19T07:21:17.163Z,821.43
2017-07-19T07:22:17.817Z,821.38
2017-07-19T07:23:18.521Z,821.36
2017-07-19T07:24:19.129Z,821.37
2017-07-19T07:25:19.757Z,821.38
2017-07-19T07:26:20.397Z,821.36
2017-07-19T07:27:21.002Z,821.35
2017-07-19T07:28:21.673Z,821.37
2017-07-19T07:29:22.293Z,821.38
2017-07-19T07:30:22.929Z,821.32
2017-07-19T07:31:23.540Z,821.36
2017-07-19T07:32:24.161Z,821.39
2017-07-19T07:33:24.858Z,821.33
2017-07-19T07:34:25.522Z,821.36
2017-07-19T07:35:26.138Z,821.32
2017-07-19T07:36:26.763Z,821.30
2017-07-19T07:37:27.395Z,821.32
2017-07-19T07:38:28.054Z,821.32
2017-07-19T07:39:28.674Z,821.33
2017-07-19T07:40:29.299Z,821.31
2017-07-19T07:41:29.918Z,821.31
2017-07-19T07:42:30.539Z,821.30
2017-07-19T07:43:31.211Z,821.33
2017-07-19T07:44:31.831Z,821.32
2017-07-19T07:45:32.488Z,821.30
2017-07-19T07:46:33.139Z,821.31
2017-07-19T07:47:33.747Z,821.28
2017-07-19T07:48:34.442Z,821.30
2017-07-19T07:49:35.051Z,821.27
2017-07-19T07:50:35.674Z,821.29
2017-07-19T07:51:36.295Z,821.26
2017-07-19T07:52:36.944Z,821.28
2017-07-19T07:53:37.601Z,821.25
2017-07-19T07:54:38.259Z,821.27
2017-07-19T07:55:38.882Z,821.29
2017-07-19T07:56:39.503Z,821.27
2017-07-19T07:57:40.127Z,821.25
2017-07-19T07:58:40.797Z,821.31
2017-07-19T07:59:41.423Z,821.27
2017-07-19T08:00:42.043Z,821.33
2017-07-19T08:01:42.664Z,821.29
2017-07-19T08:02:43.284Z,821.32
2017-07-19T08:03:43.989Z,821.27
2017-07-19T08:04:44.649Z,821.33
2017-07-19T08:05:45.270Z,821.33
2017-07-19T08:06:45.891Z,821.29
2017-07-19T08:07:46.517Z,821.31
2017-07-19T08:08:47.184Z,821.30
2017-07-19T08:09:47.808Z,821.30
2017-07-19T08:10:48.430Z,821.30
2017-07-19T08:11:49.050Z,821.29
2017-07-19T08:12:49.671Z,821.27
2017-07-19T08:13:50.344Z,821.24
2017-07-19T08:14:50.966Z,821.26
2017-07-19T08:15:51.586Z,821.22
2017-07-19T08:16:52.234Z,821.29
2017-07-19T08:17:52.842Z,821.26
2017-07-19T08:18:53.577Z,821.23
2017-07-19T08:19:54.185Z,821.26
2017-07-19T08:20:54.812Z,821.23
2017-07-19T08:21:55.437Z,821.21
2017-07-19T08:22:56.080Z,821.28
2017-07-19T08:23:56.739Z,821.26
2017-07-19T08:24:57.388Z,821.22
2017-07-19T08:25:57.997Z,821.18
2017-07-19T08:26:58.621Z,821.25
2017-07-19T08:27:59.242Z,821.23
2017-07-19T08:28:59.949Z,821.20
2017-07-19T08:30:00.569Z,821.17
2017-07-19T08:31:01.225Z,821.16
2017-07-19T08:32:01.828Z,821.17
2017-07-19T08:33:02.451Z,821.19
2017-07-19T08:34:03.124Z,821.21
2017-07-19T08:35:03.753Z,821.19
2017-07-19T08:36:04.377Z,821.21
2017-07-19T08:37:04.998Z,821.21
2017-07-19T08:38:05.628Z,821.18
2017-07-19T08:39:06.304Z,821.22
2017-07-19T08:40:06.922Z,821.20
2017-07-19T08:41:07.543Z,821.19
2017-07-19T08:42:08.170Z,821.22
2017-07-19T08:43:08.828Z,821.18
2017-07-19T08:44:09.496Z,821.16
2017-07-19T08:45:10.120Z,821.18
2017-07-19T08:46:10.741Z,821.16
2017-07-19T08:47:11.404Z,821.12
2017-07-19T08:48:12.024Z,821.16
2017-07-19T08:49:12.696Z,821.13
2017-07-19T08:50:13.350Z,821.13
2017-07-19T08:51:13.955Z,821.11
2017-07-19T08:52:14.577Z,821.15
2017-07-19T08:53:15.263Z,821.03
2017-07-19T08:54:15.947Z,821.06
2017-07-19T08:55:16.587Z,821.02
2017-07-19T08:56:17.219Z,821.08
2017-07-19T08:57:17.875Z,821.03
2017-07-19T08:58:18.498Z,821.01
2017-07-19T08:59:19.186Z,821.03
2017-07-19T09:00:19.792Z,821.00
2017-07-19T09:01:20.419Z,821.04
2017-07-19T09:02:21.037Z,821.04
2017-07-19T09:03:21.661Z,821.05
2017-07-19T09:04:22.358Z,820.99
2017-07-19T09:05:22.971Z,820.99
2017-07-19T09:06:23.591Z,821.01
2017-07-19T09:07:24.215Z,821.00
2017-07-19T09:08:24.843Z,820.96
2017-07-19T09:09:25.521Z,821.01
2017-07-19T09:10:26.137Z,820.99
2017-07-19T09:11:26.767Z,820.99
2017-07-19T09:12:27.386Z,820.92
2017-07-19T09:13:28.013Z,820.94
2017-07-19T09:14:28.691Z,820.96
2017-07-19T09:15:29.317Z,820.95
2017-07-19T09:16:29.943Z,820.93
2017-07-19T09:17:30.563Z,820.92
2017-07-19T09:18:31.190Z,820.93
2017-07-19T09:19:31.890Z,820.86
2017-07-19T09:20:32.500Z,820.81
2017-07-19T09:21:33.129Z,820.84
2017-07-19T09:22:33.746Z,820.86
2017-07-19T09:23:34.375Z,820.78
2017-07-19T09:24:35.050Z,820.84
2017-07-19T09:25:35.672Z,820.80
2017-07-19T09:26:36.295Z,820.77
2017-07-19T09:27:36.917Z,820.72
2017-07-19T09:28:37.543Z,820.74
2017-07-19T09:29:38.221Z,820.70
2017-07-19T09:30:38.847Z,820.74
2017-07-19T09:31:39.470Z,820.72
2017-07-19T09:32:40.096Z,820.72
2017-07-19T09:33:40.715Z,820.70
2017-07-19T09:34:41.389Z,820.69
2017-07-19T09:35:42.013Z,820.65
2017-07-19T09:36:42.636Z,820.68
2017-07-19T09:37:43.259Z,820.64
2017-07-19T09:38:43.881Z,820.62
2017-07-19T09:39:44.582Z,820.64
2017-07-19T09:40:45.191Z,820.63
2017-07-19T09:41:45.846Z,820.58
2017-07-19T09:42:46.670Z,820.57
2017-07-19T09:43:47.293Z,820.55
2017-07-19T09:44:47.965Z,820.47
2017-07-19T09:45:48.598Z,820.48
2017-07-19T09:46:49.240Z,820.42
2017-07-19T09:47:49.877Z,820.41
2017-07-19T09:48:50.515Z,820.38
2017-07-19T09:49:51.202Z,820.41
2017-07-19T09:50:51.811Z,820.39
2017-07-19T09:51:52.433Z,820.37
2017-07-19T09:52:53.058Z,820.41
2017-07-19T09:53:53.682Z,820.37
2017-07-19T09:54:54.355Z,820.40
2017-07-19T09:55:54.982Z,820.40
2017-07-19T09:56:55.605Z,820.44
2017-07-19T09:57:56.229Z,820.42
2017-07-19T09:58:56.858Z,820.37
2017-07-19T09:59:57.527Z,820.36
2017-07-19T10:00:58.155Z,820.32
2017-07-19T10:01:58.778Z,820.30
2017-07-19T10:02:59.402Z,820.30
2017-07-19T10:04:00.026Z,820.26
2017-07-19T10:05:00.700Z,820.29
2017-07-19T10:06:01.323Z,820.30
2017-07-19T10:07:01.946Z,820.26
2017-07-19T10:08:02.571Z,820.22
2017-07-19T10:09:03.200Z,820.24
2017-07-19T10:10:04.149Z,820.19
2017-07-19T10:11:04.806Z,820.22
2017-07-19T10:12:05.435Z,820.19
2017-07-19T10:13:06.091Z,820.20
2017-07-19T10:14:06.749Z,820.17
2017-07-19T10:15:07.433Z,820.17
2017-07-19T10:16:08.050Z,820.19
2017-07-19T10:17:08.674Z,820.18
2017-07-19T10:18:09.305Z,820.21
2017-07-19T10:19:09.930Z,820.19
2017-07-19T10:20:10.601Z,820.20
2017-07-19T10:21:11.226Z,820.21
2017-07-19T10:22:11.852Z,820.21
2017-07-19T10:23:12.475Z,820.16
2017-07-19T10:24:13.123Z,820.13
2017-07-19T10:25:13.798Z,820.16
2017-07-19T10:26:14.445Z,820.13
2017-07-19T10:27:15.070Z,820.11
2017-07-19T10:28:15.699Z,820.12
2017-07-19T10:29:16.323Z,820.08
2017-07-19T10:30:17.000Z,820.11
2017-07-19T10:31:17.623Z,820.12
2017-07-19T10:32:18.253Z,820.09
2017-07-19T10:33:18.876Z,820.05
2017-07-19T10:34:19.500Z,820.07
2017-07-19T10:35:20.189Z,820.08
2017-07-19T10:36:20.810Z,820.04
2017-07-19T10:37:21.436Z,820.05
2017-07-19T10:38:22.061Z,820.05
2017-07-19T10:39:22.691Z,820.00
2017-07-19T10:40:23.363Z,820.00
2017-07-19T10:41:23.995Z,820.06
2017-07-19T10:42:24.616Z,820.03
2017-07-19T10:43:25.274Z,820.06
2017-07-19T10:44:25.889Z,820.01
2017-07-19T10:45:26.561Z,820.01
2017-07-19T10:46:27.187Z,820.03
2017-07-19T10:47:27.812Z,819.99
2017-07-19T10:48:28.472Z,820.00
2017-07-19T10:49:29.085Z,820.02
2017-07-19T10:50:29.758Z,819.94
2017-07-19T10:51:30.383Z,819.97
2017-07-19T10:52:31.042Z,819.88
2017-07-19T10:53:31.667Z,819.89
2017-07-19T10:54:32.293Z,819.91
2017-07-19T10:55:33.246Z,819.85
2017-07-19T10:56:33.857Z,819.87
2017-07-19T10:57:34.485Z,819.88
2017-07-19T10:58:35.111Z,819.86
2017-07-19T10:59:35.737Z,819.91
2017-07-19T11:00:36.412Z,819.90
2017-07-19T11:01:37.039Z,819.88
2017-07-19T11:02:37.665Z,819.87
2017-07-19T11:03:38.289Z,819.90
2017-07-19T11:04:38.915Z,819.83
2017-07-19T11:05:39.841Z,819.86
2017-07-19T11:06:40.473Z,819.88
2017-07-19T11:07:41.106Z,819.81
2017-07-19T11:08:41.721Z,819.84
2017-07-19T11:09:42.346Z,819.75
2017-07-19T11:10:43.023Z,819.75
2017-07-19T11:11:43.649Z,819.79
2017-07-19T11:12:44.279Z,819.73
2017-07-19T11:13:44.907Z,819.75
2017-07-19T11:14:45.532Z,819.75
2017-07-19T11:15:46.243Z,819.71
2017-07-19T11:16:46.850Z,819.75
2017-07-19T11:17:47.480Z,819.74
2017-07-19T11:18:48.342Z,819.73
2017-07-19T11:19:48.965Z,819.73
2017-07-19T11:20:49.640Z,819.69
2017-07-19T11:21:50.267Z,819.70
2017-07-19T11:22:50.894Z,819.65
2017-07-19T11:23:51.519Z,819.62
2017-07-19T11:24:52.146Z,819.66
2017-07-19T11:25:52.851Z,819.68
2017-07-19T11:26:53.512Z,819.70
2017-07-19T11:27:54.204Z,819.65
2017-07-19T11:28:54.814Z,819.72
2017-07-19T11:29:55.466Z,819.74
2017-07-19T11:30:56.128Z,819.67
2017-07-19T11:31:56.760Z,819.62
2017-07-19T11:32:57.391Z,819.68
2017-07-19T11:33:58.010Z,819.63
2017-07-19T11:34:58.636Z,819.67
2017-07-19T11:35:59.347Z,819.72
2017-07-19T11:36:59.977Z,819.69
2017-07-19T11:38:00.605Z,819.70
2017-07-19T11:39:01.228Z,819.66
2017-07-19T11:40:01.919Z,819.71
2017-07-19T11:41:02.584Z,819.72
2017-07-19T11:42:03.210Z,819.69
2017-07-19T11:43:03.867Z,819.68
2017-07-19T11:44:04.494Z,819.73
2017-07-19T11:45:05.127Z,819.65
2017-07-19T11:46:06.050Z,819.67
2017-07-19T11:47:06.677Z,819.67
2017-07-19T11:48:07.332Z,819.73
2017-07-19T11:49:07.945Z,819.64
2017-07-19T11:50:08.596Z,819.70
2017-07-19T11:51:09.284Z,819.74
2017-07-19T11:52:09.930Z,819.64
2017-07-19T11:53:10.540Z,819.56
2017-07-19T11:54:11.192Z,819.62
2017-07-19T11:55:11.832Z,819.61
2017-07-19T11:56:12.496Z,819.59
2017-07-19T11:57:13.130Z,819.59
2017-07-19T11:58:13.754Z,819.62
2017-07-19T11:59:14.408Z,819.55
2017-07-19T12:00:15.023Z,819.56
2017-07-19T12:01:15.699Z,819.59
2017-07-19T12:02:16.356Z,819.56
2017-07-19T12:03:16.967Z,819.60
2017-07-19T12:04:17.594Z,819.56
2017-07-19T12:05:18.221Z,819.59
2017-07-19T12:06:18.932Z,819.58
2017-07-19T12:07:19.558Z,819.65
2017-07-19T12:08:20.183Z,819.63
2017-07-19T12:09:20.810Z,819.69
2017-07-19T12:10:21.437Z,819.66
2017-07-19T12:11:22.146Z,819.69
2017-07-19T12:12:22.773Z,819.72
2017-07-19T12:13:23.426Z,819.72
2017-07-19T12:14:24.032Z,819.73
2017-07-19T12:15:24.657Z,819.70
2017-07-19T12:16:25.332Z,819.70
2017-07-19T12:17:25.961Z,819.73
2017-07-19T12:18:26.586Z,819.71
2017-07-19T12:19:27.211Z,819.72
2017-07-19T12:20:27.837Z,819.71
2017-07-19T12:21:28.517Z,819.71
2017-07-19T12:22:29.141Z,819.74
2017-07-19T12:23:29.767Z,819.75
2017-07-19T12:24:30.396Z,819.75
2017-07-19T12:25:31.059Z,819.76
2017-07-19T12:26:31.765Z,819.74
2017-07-19T12:27:32.427Z,819.71
2017-07-19T12:28:33.084Z,819.68
2017-07-19T12:29:33.711Z,819.66
2017-07-19T12:30:34.368Z,819.59
2017-07-19T12:31:35.044Z,819.59
2017-07-19T12:32:35.704Z,819.55
2017-07-19T12:33:36.361Z,819.58
2017-07-19T12:34:36.970Z,819.57
2017-07-19T12:35:37.595Z,819.53
2017-07-19T12:36:38.274Z,819.56